Time;durP1;ratioP1;P1;durP2;ratioP2;P2;SDS_P1;SDS_P2;PMS_P1;PMS_P2;Temp;Humidity;BMP_temperature;BMP_pressure;BME280_temperature;BME280_humidity;BME280_pressure;Samples;Min_cycle;Max_cycle;Signal;HPM_P1;HPM_P2
2021/11/23 00:01:36;;;;;;;11.77;9.02;;;;;;;9.16;100.00;98671.38;5077140;27;20810;-69
2021/11/23 00:04:02;;;;;;;13.15;8.82;;;;;;;9.08;100.00;98674.63;5070004;27;20467;-68
2021/11/23 00:06:29;;;;;;;13.45;8.40;;;;;;;8.87;100.00;98645.38;5066502;28;20105;-69
2021/11/23 00:08:54;;;;;;;12.45;8.95;;;;;;;9.01;100.00;98674.34;5064919;28;20024;-68
2021/11/23 00:11:20;;;;;;;17.25;11.48;;;;;;;9.11;100.00;98674.38;5070219;28;20080;-69
2021/11/23 00:13:45;;;;;;;13.73;10.13;;;;;;;9.12;100.00;98686.38;5060873;28;20031;-69
2021/11/23 00:16:11;;;;;;;15.63;10.50;;;;;;;8.94;100.00;98644.69;5073272;27;20019;-69
2021/11/23 00:18:36;;;;;;;16.88;11.13;;;;;;;9.11;100.00;98673.53;5076578;28;20071;-69
2021/11/23 00:21:02;;;;;;;12.30;9.02;;;;;;;8.93;100.00;98656.03;5070753;27;20123;-69
2021/11/23 00:23:28;;;;;;;14.30;8.85;;;;;;;9.02;100.00;98682.97;5063627;28;20038;-70
2021/11/23 00:25:53;;;;;;;11.13;8.07;;;;;;;9.03;100.00;98693.22;5110224;27;20027;-69
2021/11/23 00:28:19;;;;;;;10.68;7.97;;;;;;;9.10;100.00;98688.28;5105588;27;20031;-71
2021/11/23 00:30:46;;;;;;;12.63;8.05;;;;;;;9.07;100.00;98687.72;5070954;28;20073;-71
2021/11/23 00:33:12;;;;;;;11.82;8.63;;;;;;;9.12;100.00;98681.19;5075528;28;20027;-69
2021/11/23 00:35:38;;;;;;;11.88;8.70;;;;;;;9.15;100.00;98688.72;5075928;28;20035;-70
2021/11/23 00:38:04;;;;;;;13.18;9.25;;;;;;;9.08;100.00;98682.41;5058708;28;20055;-69
2021/11/23 00:40:30;;;;;;;13.52;10.32;;;;;;;9.14;100.00;98689.66;5073157;27;20051;-69
2021/11/23 00:42:57;;;;;;;15.88;10.38;;;;;;;9.09;100.00;98671.09;5108796;27;20136;-69
2021/11/23 00:45:22;;;;;;;12.65;10.13;;;;;;;9.10;100.00;98684.88;5065914;28;20016;-69
2021/11/23 00:47:48;;;;;;;12.95;10.23;;;;;;;9.15;100.00;98698.28;5071145;28;20039;-69
2021/11/23 00:50:14;;;;;;;13.98;10.52;;;;;;;9.14;100.00;98705.22;5098460;28;20031;-69
2021/11/23 00:52:40;;;;;;;15.45;11.38;;;;;;;9.19;100.00;98702.25;5066511;28;20031;-68
2021/11/23 00:55:06;;;;;;;15.27;11.50;;;;;;;9.19;100.00;98703.06;5092948;28;20906;-69
2021/11/23 00:57:32;;;;;;;16.55;11.80;;;;;;;9.15;100.00;98704.28;5053424;28;20118;-69
2021/11/23 00:59:57;;;;;;;18.98;11.65;;;;;;;9.07;100.00;98703.28;5072920;28;20024;-69
2021/11/23 01:02:23;;;;;;;14.93;11.48;;;;;;;9.02;100.00;98703.72;5057427;28;20089;-68
2021/11/23 01:04:48;;;;;;;17.85;13.25;;;;;;;9.10;100.00;98716.81;5074469;28;20126;-69
2021/11/23 01:07:13;;;;;;;17.25;12.18;;;;;;;8.79;100.00;98667.59;5064500;28;20035;-69
2021/11/23 01:09:39;;;;;;;17.00;11.60;;;;;;;9.07;100.00;98713.66;5106780;27;20031;-68
2021/11/23 01:12:05;;;;;;;15.93;11.75;;;;;;;9.15;100.00;98719.84;5067721;28;20035;-69
2021/11/23 01:14:30;;;;;;;16.35;11.65;;;;;;;8.84;100.00;98672.41;5088114;28;20061;-69
2021/11/23 01:16:56;;;;;;;14.40;10.82;;;;;;;9.15;100.00;98722.44;5058791;28;20515;-69
2021/11/23 01:19:22;;;;;;;17.15;11.65;;;;;;;9.10;100.00;98726.38;5053682;28;20020;-69
2021/11/23 01:21:48;;;;;;;12.98;10.27;;;;;;;9.07;100.00;98731.81;5073107;28;20020;-69
2021/11/23 01:24:14;;;;;;;14.45;10.63;;;;;;;8.97;100.00;98700.69;5110384;27;20074;-69
2021/11/23 01:26:41;;;;;;;14.48;10.50;;;;;;;9.20;100.00;98728.06;5052665;28;20434;-69
2021/11/23 01:29:07;;;;;;;14.48;10.00;;;;;;;9.01;100.00;98712.44;5091646;28;20060;-68
2021/11/23 01:31:33;;;;;;;13.75;9.65;;;;;;;9.22;100.00;98739.13;5090029;27;20529;-69
2021/11/23 01:33:59;;;;;;;14.70;10.43;;;;;;;9.28;100.00;98745.53;5072919;28;20024;-69
2021/11/23 01:36:24;;;;;;;13.88;10.50;;;;;;;9.28;100.00;98734.34;5069356;28;20514;-68
2021/11/23 01:38:50;;;;;;;13.55;9.82;;;;;;;9.30;100.00;98740.22;5068299;28;20024;-69
2021/11/23 01:41:15;;;;;;;12.60;8.70;;;;;;;9.03;100.00;98707.94;5090254;28;20051;-69
2021/11/23 01:43:40;;;;;;;11.00;7.72;;;;;;;9.13;100.00;98752.06;5064071;28;20391;-69
2021/11/23 01:46:06;;;;;;;11.65;8.13;;;;;;;8.84;100.00;98706.09;5069853;28;20059;-69
2021/11/23 01:48:32;;;;;;;12.75;8.43;;;;;;;8.89;100.00;98714.31;5070556;28;20077;-69
2021/11/23 01:50:58;;;;;;;15.27;8.95;;;;;;;9.17;100.00;98756.84;5064502;28;20102;-69
2021/11/23 01:53:24;;;;;;;13.35;9.07;;;;;;;9.21;100.00;98755.63;5067045;28;20136;-69
2021/11/23 01:55:49;;;;;;;11.13;7.15;;;;;;;9.20;100.00;98761.78;5066438;28;20035;-70
2021/11/23 01:58:15;;;;;;;10.77;6.22;;;;;;;9.21;100.00;98770.38;5085859;28;20543;-69
2021/11/23 02:00:42;;;;;;;9.27;5.70;;;;;;;9.28;100.00;98771.50;5055292;28;20062;-69
2021/11/23 02:03:08;;;;;;;8.25;5.93;;;;;;;9.16;100.00;98760.41;5067784;28;20081;-69
2021/11/23 02:05:34;;;;;;;11.82;6.82;;;;;;;9.23;100.00;98773.66;5067878;27;20110;-70
2021/11/23 02:08:00;;;;;;;12.50;8.13;;;;;;;9.29;100.00;98774.91;5072463;28;20115;-69
2021/11/23 02:10:25;;;;;;;14.90;7.88;;;;;;;9.04;100.00;98743.31;5072037;28;20036;-69
2021/11/23 02:12:52;;;;;;;11.63;7.03;;;;;;;9.30;100.00;98782.56;5049731;28;20032;-68
2021/11/23 02:15:17;;;;;;;10.07;7.10;;;;;;;9.27;100.00;98775.03;5089841;27;20485;-68
2021/11/23 02:17:44;;;;;;;9.60;7.10;;;;;;;9.31;100.00;98784.22;5069425;28;20139;-69
2021/11/23 02:20:13;;;;;;;11.45;6.97;;;;;;;9.02;100.00;98745.22;5060465;27;20450;-69
2021/11/23 02:22:38;;;;;;;10.43;7.30;;;;;;;9.24;100.00;98780.50;5074731;28;20020;-69
2021/11/23 02:25:05;;;;;;;9.60;6.78;;;;;;;9.15;100.00;98789.06;5060798;28;20032;-69
2021/11/23 02:27:31;;;;;;;10.48;7.45;;;;;;;9.02;100.00;98789.31;5073541;28;20036;-70
2021/11/23 02:29:56;;;;;;;10.20;6.90;;;;;;;9.14;100.00;98792.59;5091232;27;20110;-68
2021/11/23 02:32:22;;;;;;;10.02;7.05;;;;;;;9.07;100.00;98783.72;5078337;27;20119;-68
2021/11/23 02:34:47;;;;;;;8.45;5.78;;;;;;;9.05;100.00;98789.03;5077125;28;20035;-68
2021/11/23 02:37:13;;;;;;;10.30;6.03;;;;;;;9.02;100.00;98797.91;5058646;27;20794;-69
2021/11/23 02:39:38;;;;;;;8.82;6.18;;;;;;;9.03;100.00;98802.16;5078570;28;20028;-70
2021/11/23 02:42:03;;;;;;;9.65;6.20;;;;;;;9.04;100.00;98800.38;5074729;28;20093;-70
2021/11/23 02:44:29;;;;;;;9.52;5.78;;;;;;;9.13;100.00;98798.78;5094941;27;20032;-68
2021/11/23 02:46:54;;;;;;;8.00;5.75;;;;;;;9.04;100.00;98806.38;5096212;27;20032;-70
2021/11/23 02:49:21;;;;;;;8.85;5.88;;;;;;;8.87;100.00;98782.81;5063549;28;20024;-70
2021/11/23 02:51:47;;;;;;;8.13;5.78;;;;;;;8.85;100.00;98769.97;5095945;27;20051;-69
2021/11/23 02:54:13;;;;;;;8.40;5.47;;;;;;;8.96;100.00;98807.97;5063423;27;20042;-68
2021/11/23 02:56:38;;;;;;;8.35;5.57;;;;;;;8.76;100.00;98776.78;5096931;27;20016;-69
2021/11/23 02:59:04;;;;;;;9.18;5.95;;;;;;;9.17;100.00;98820.91;5065524;27;20276;-69
2021/11/23 03:01:30;;;;;;;8.45;5.03;;;;;;;9.05;100.00;98822.75;5070518;28;20560;-69
2021/11/23 03:03:56;;;;;;;8.25;4.80;;;;;;;8.92;100.00;98820.34;5077716;27;20069;-68
2021/11/23 03:06:21;;;;;;;7.28;4.57;;;;;;;8.54;100.00;98767.38;5075699;27;20386;-68
2021/11/23 03:08:48;;;;;;;6.47;4.22;;;;;;;8.82;100.00;98811.72;5109602;27;20111;-69
2021/11/23 03:11:16;;;;;;;6.72;4.40;;;;;;;8.81;100.00;98829.03;5070724;27;20028;-70
2021/11/23 03:13:42;;;;;;;6.47;4.10;;;;;;;8.87;100.00;98834.66;5089881;27;20032;-69
2021/11/23 03:16:07;;;;;;;6.88;4.10;;;;;;;8.88;100.00;98834.53;5112391;27;20039;-68
2021/11/23 03:18:33;;;;;;;6.60;4.20;;;;;;;8.60;100.00;98786.78;5079762;28;20055;-69
2021/11/23 03:20:59;;;;;;;8.40;4.18;;;;;;;8.49;100.00;98787.66;5054839;27;20743;-68
2021/11/23 03:23:24;;;;;;;6.15;3.72;;;;;;;8.73;100.00;98828.88;5083027;27;20453;-70
2021/11/23 03:25:50;;;;;;;6.03;3.25;;;;;;;8.78;100.00;98844.88;5068585;27;20040;-70
2021/11/23 03:28:16;;;;;;;4.72;2.80;;;;;;;8.66;100.00;98828.53;5076224;27;20038;-69
2021/11/23 03:30:41;;;;;;;6.05;3.53;;;;;;;8.75;100.00;98852.88;5073087;28;20024;-68
2021/11/23 03:33:08;;;;;;;5.70;3.35;;;;;;;8.82;100.00;98850.63;5091486;27;20440;-68
2021/11/23 03:35:36;;;;;;;5.57;2.75;;;;;;;8.75;100.00;98859.84;5077489;28;20038;-69
2021/11/23 03:38:03;;;;;;;6.45;2.85;;;;;;;8.68;100.00;98846.56;5066115;28;20030;-70
2021/11/23 03:40:30;;;;;;;5.65;2.65;;;;;;;8.41;100.00;98805.56;5072677;27;20405;-69
2021/11/23 03:42:56;;;;;;;7.38;3.35;;;;;;;8.71;100.00;98855.88;5063137;27;20091;-69
2021/11/23 03:45:22;;;;;;;6.70;3.40;;;;;;;8.70;100.00;98862.00;5060723;28;20655;-69
2021/11/23 03:47:48;;;;;;;4.97;2.70;;;;;;;8.54;100.00;98827.00;5065629;27;20070;-69
2021/11/23 03:50:15;;;;;;;5.53;2.80;;;;;;;8.83;100.00;98862.63;5094419;27;20119;-69
2021/11/23 03:52:41;;;;;;;6.03;3.00;;;;;;;8.80;100.00;98873.28;5075839;28;20529;-69
2021/11/23 03:55:09;;;;;;;6.15;2.78;;;;;;;8.80;100.00;98862.91;5069214;28;20036;-69
2021/11/23 03:57:35;;;;;;;6.65;2.55;;;;;;;8.60;100.00;98826.47;5074510;28;20122;-69
2021/11/23 04:00:00;;;;;;;5.53;3.00;;;;;;;8.92;100.00;98877.41;5065595;28;20024;-68
2021/11/23 04:02:26;;;;;;;5.68;2.60;;;;;;;8.91;100.00;98872.34;5067030;28;20545;-70
2021/11/23 04:04:53;;;;;;;6.30;3.33;;;;;;;8.98;100.00;98879.50;5081005;27;20577;-71
2021/11/23 04:07:18;;;;;;;6.25;3.70;;;;;;;8.93;100.00;98873.88;5109868;27;20028;-71
2021/11/23 04:09:44;;;;;;;6.00;3.50;;;;;;;9.02;100.00;98874.91;5063656;28;20051;-70
2021/11/23 04:12:10;;;;;;;5.95;3.45;;;;;;;9.00;100.00;98871.59;5063576;27;20057;-69
2021/11/23 04:14:37;;;;;;;5.57;3.40;;;;;;;9.00;100.00;98880.22;5058997;28;20036;-70
2021/11/23 04:17:04;;;;;;;5.35;3.17;;;;;;;9.00;100.00;98879.38;5075744;28;20092;-70
2021/11/23 04:19:30;;;;;;;5.95;3.00;;;;;;;8.76;100.00;98874.44;5052184;28;20024;-70
2021/11/23 04:21:57;;;;;;;5.45;3.03;;;;;;;8.77;100.00;98886.47;5076724;28;20035;-67
2021/11/23 04:24:22;;;;;;;5.00;2.58;;;;;;;8.77;100.00;98886.47;5053060;28;20043;-68
2021/11/23 04:26:47;;;;;;;5.80;2.50;;;;;;;8.61;100.00;98882.53;5069896;27;20031;-67
2021/11/23 04:29:13;;;;;;;5.32;2.38;;;;;;;8.62;100.00;98888.56;5076287;28;20036;-69
2021/11/23 04:31:38;;;;;;;5.05;2.45;;;;;;;8.64;100.00;98886.66;5079320;27;20042;-69
2021/11/23 04:34:04;;;;;;;5.57;2.30;;;;;;;8.58;100.00;98884.53;5093266;27;20040;-66
2021/11/23 04:36:29;;;;;;;6.22;2.35;;;;;;;8.41;100.00;98876.34;5064477;27;20736;-69
2021/11/23 04:38:55;;;;;;;5.53;2.13;;;;;;;8.53;100.00;98890.13;5071689;27;20054;-69
2021/11/23 04:41:20;;;;;;;5.47;2.17;;;;;;;8.17;100.00;98824.75;5076670;28;20574;-67
2021/11/23 04:43:45;;;;;;;5.95;2.33;;;;;;;8.62;100.00;98885.97;5097472;27;20096;-69
2021/11/23 04:46:11;;;;;;;5.72;2.38;;;;;;;8.39;100.00;98851.53;5073208;28;20522;-69
2021/11/23 04:48:36;;;;;;;6.05;2.10;;;;;;;8.66;100.00;98892.53;5098239;28;20024;-68
2021/11/23 04:51:02;;;;;;;4.80;1.63;;;;;;;8.36;100.00;98859.53;5070980;28;20385;-69
2021/11/23 04:53:27;;;;;;;5.57;2.10;;;;;;;8.66;100.00;98897.72;5087488;28;20075;-69
2021/11/23 04:55:53;;;;;;;5.50;1.80;;;;;;;8.69;100.00;98892.28;5095911;28;20027;-66
2021/11/23 04:58:18;;;;;;;4.53;1.90;;;;;;;8.63;100.00;98893.63;5069816;28;20653;-67
2021/11/23 05:00:44;;;;;;;4.00;1.70;;;;;;;8.71;100.00;98903.34;5075320;28;20034;-69
2021/11/23 05:03:09;;;;;;;5.32;1.70;;;;;;;8.64;100.00;98894.44;5101010;28;20031;-69
2021/11/23 05:05:35;;;;;;;3.80;1.58;;;;;;;8.80;100.00;98902.59;5060751;28;20049;-68
2021/11/23 05:08:01;;;;;;;4.10;1.70;;;;;;;8.82;100.00;98903.28;5075673;28;20814;-69
2021/11/23 05:10:26;;;;;;;5.22;2.10;;;;;;;8.74;100.00;98895.31;5091795;28;20039;-69
2021/11/23 05:12:53;;;;;;;5.93;1.90;;;;;;;8.79;100.00;98910.50;5068729;28;20474;-67
2021/11/23 05:15:18;;;;;;;6.55;2.20;;;;;;;8.76;100.00;98909.00;5059143;28;20541;-68
2021/11/23 05:17:44;;;;;;;5.20;1.80;;;;;;;8.78;100.00;98914.88;5072775;28;20078;-68
2021/11/23 05:20:10;;;;;;;4.28;2.05;;;;;;;8.66;100.00;98906.31;5068373;28;20035;-69
2021/11/23 05:22:36;;;;;;;4.82;2.00;;;;;;;8.57;100.00;98916.63;5058619;28;20111;-67
2021/11/23 05:25:03;;;;;;;4.10;1.77;;;;;;;8.55;100.00;98921.09;5085212;28;20043;-71
2021/11/23 05:27:28;;;;;;;5.20;2.20;;;;;;;8.59;100.00;98920.72;5080262;28;20467;-68
2021/11/23 05:29:54;;;;;;;5.10;2.28;;;;;;;8.48;100.00;98919.94;5068305;28;20036;-67
2021/11/23 05:32:19;;;;;;;5.07;2.10;;;;;;;8.17;100.00;98875.75;5067733;28;20027;-69
2021/11/23 05:34:45;;;;;;;4.60;2.25;;;;;;;8.56;100.00;98928.75;5066076;28;20106;-68
2021/11/23 05:37:10;;;;;;;5.40;2.20;;;;;;;8.56;100.00;98930.50;5098318;27;20027;-67
2021/11/23 05:39:35;;;;;;;5.75;2.45;;;;;;;8.52;100.00;98929.13;5096888;27;20026;-67
2021/11/23 05:42:01;;;;;;;5.78;2.72;;;;;;;8.29;100.00;98903.25;5112745;27;20630;-69
2021/11/23 05:44:26;;;;;;;5.80;2.83;;;;;;;8.54;100.00;98937.59;5078388;28;20031;-68
2021/11/23 05:46:52;;;;;;;4.88;2.33;;;;;;;8.18;100.00;98885.19;5064556;27;20117;-68
2021/11/23 05:49:17;;;;;;;6.47;2.58;;;;;;;8.53;100.00;98949.72;5076454;28;20552;-68
2021/11/23 05:51:44;;;;;;;4.80;2.45;;;;;;;8.59;100.00;98954.41;5070081;28;20028;-68
2021/11/23 05:54:09;;;;;;;4.57;2.70;;;;;;;8.66;100.00;98947.78;5073451;27;20049;-67
2021/11/23 05:56:35;;;;;;;6.35;2.50;;;;;;;8.62;100.00;98961.94;5066833;28;20466;-69
2021/11/23 05:59:01;;;;;;;6.88;3.03;;;;;;;8.70;100.00;98966.50;5071724;28;20441;-68
2021/11/23 06:01:27;;;;;;;6.90;2.85;;;;;;;8.69;100.00;98958.84;5081236;28;20060;-68
2021/11/23 06:03:52;;;;;;;5.47;3.15;;;;;;;8.26;100.00;98893.94;5067695;27;20027;-72
2021/11/23 06:06:17;;;;;;;6.00;3.70;;;;;;;8.41;100.00;98930.75;5075689;28;20036;-71
2021/11/23 06:08:43;;;;;;;8.05;5.30;;;;;;;8.70;100.00;98981.25;5061237;28;20035;-71
2021/11/23 06:11:08;;;;;;;7.15;4.47;;;;;;;8.65;100.00;98974.69;5087007;27;20094;-67
2021/11/23 06:13:34;;;;;;;7.90;4.30;;;;;;;8.75;100.00;98985.13;5052437;28;20027;-68
2021/11/23 06:15:59;;;;;;;6.95;4.10;;;;;;;8.80;100.00;98990.75;5089104;27;20049;-68
2021/11/23 06:18:25;;;;;;;6.78;4.10;;;;;;;8.75;100.00;98981.72;5074889;28;20034;-68
2021/11/23 06:20:53;;;;;;;6.72;3.95;;;;;;;8.85;100.00;98995.56;5110346;27;20042;-68
2021/11/23 06:23:20;;;;;;;7.28;4.40;;;;;;;8.89;100.00;98998.72;5087223;27;20024;-69
2021/11/23 06:25:48;;;;;;;6.72;3.92;;;;;;;8.87;100.00;99005.81;5052408;27;20040;-68
2021/11/23 06:28:14;;;;;;;7.50;3.80;;;;;;;8.86;100.00;99007.59;5071554;28;20478;-68
2021/11/23 06:30:40;;;;;;;6.43;3.92;;;;;;;8.89;100.00;99009.09;5060776;28;20062;-69
2021/11/23 06:33:05;;;;;;;7.85;4.40;;;;;;;8.66;100.00;98980.69;5068786;28;20024;-69
2021/11/23 06:35:31;;;;;;;6.47;3.63;;;;;;;8.88;100.00;99018.66;5070441;28;20038;-68
2021/11/23 06:37:57;;;;;;;7.30;4.03;;;;;;;8.87;100.00;99031.75;5072021;28;20040;-69
2021/11/23 06:40:22;;;;;;;6.43;3.60;;;;;;;8.86;100.00;99030.94;5093336;27;20677;-68
2021/11/23 06:42:47;;;;;;;8.15;4.50;;;;;;;8.72;100.00;99020.84;5067278;27;20046;-68
2021/11/23 06:45:13;;;;;;;8.57;5.55;;;;;;;8.82;100.00;99038.13;5048148;27;20028;-68
2021/11/23 06:47:39;;;;;;;10.23;5.32;;;;;;;8.64;100.00;99031.81;5060874;28;20097;-69
2021/11/23 06:50:05;;;;;;;8.68;4.35;;;;;;;8.81;100.00;99056.41;5075744;28;20032;-69
2021/11/23 06:52:31;;;;;;;6.32;3.30;;;;;;;8.73;100.00;99061.38;5070630;28;20043;-68
2021/11/23 06:54:56;;;;;;;6.68;3.08;;;;;;;8.77;100.00;99066.19;5072727;27;20080;-69
2021/11/23 06:57:22;;;;;;;5.85;3.00;;;;;;;8.61;100.00;99052.78;5112524;27;20023;-70
2021/11/23 06:59:47;;;;;;;8.57;2.90;;;;;;;8.76;100.00;99074.09;5063230;28;20135;-68
2021/11/23 07:02:13;;;;;;;5.38;3.00;;;;;;;8.56;100.00;99036.78;5069146;28;20042;-68
2021/11/23 07:04:38;;;;;;;4.97;2.70;;;;;;;8.91;100.00;99080.66;5074056;28;20028;-69
2021/11/23 07:07:04;;;;;;;6.47;3.15;;;;;;;8.81;100.00;99077.16;5107642;27;20099;-68
2021/11/23 07:09:30;;;;;;;6.55;3.38;;;;;;;8.60;100.00;99046.78;5062060;28;20028;-68
2021/11/23 07:11:55;;;;;;;7.15;3.80;;;;;;;8.80;100.00;99091.06;5070657;28;20028;-68
2021/11/23 07:14:21;;;;;;;7.25;3.40;;;;;;;8.65;100.00;99091.34;5075688;28;20483;-68
2021/11/23 07:16:47;;;;;;;7.90;3.70;;;;;;;8.74;100.00;99096.72;5076095;28;20066;-68
2021/11/23 07:19:13;;;;;;;6.90;4.38;;;;;;;8.74;100.00;99094.94;5078202;27;20040;-68
2021/11/23 07:21:39;;;;;;;7.75;4.90;;;;;;;8.73;100.00;99101.09;5093722;27;20038;-68
2021/11/23 07:24:05;;;;;;;8.18;4.80;;;;;;;8.50;100.00;99058.00;5093494;28;20024;-68
2021/11/23 07:26:31;;;;;;;8.63;4.85;;;;;;;8.81;100.00;99103.06;5053428;28;20059;-68
2021/11/23 07:29:00;;;;;;;7.97;5.38;;;;;;;8.80;100.00;99101.44;5079262;27;20088;-68
2021/11/23 07:31:26;;;;;;;8.90;5.55;;;;;;;8.87;100.00;99109.53;5075310;28;20024;-67
2021/11/23 07:33:52;;;;;;;10.68;5.30;;;;;;;8.90;100.00;99115.31;5075750;28;20086;-68
2021/11/23 07:36:19;;;;;;;9.65;5.65;;;;;;;8.75;100.00;99111.34;5071633;28;20016;-68
2021/11/23 07:38:46;;;;;;;8.35;5.55;;;;;;;8.81;100.00;99124.63;5063494;28;20139;-69
2021/11/23 07:41:11;;;;;;;10.73;5.90;;;;;;;8.79;100.00;99129.13;5078759;28;20377;-69
2021/11/23 07:43:36;;;;;;;12.40;4.78;;;;;;;8.66;100.00;99131.84;5083411;28;20482;-69
2021/11/23 07:46:02;;;;;;;8.35;5.18;;;;;;;8.61;100.00;99133.16;5073011;28;20031;-68
2021/11/23 07:48:27;;;;;;;10.85;5.85;;;;;;;8.67;100.00;99137.88;5073551;28;20932;-68
2021/11/23 07:50:53;;;;;;;9.40;5.72;;;;;;;8.48;100.00;99122.09;5058173;27;20023;-68
2021/11/23 07:53:18;;;;;;;8.25;5.65;;;;;;;8.51;100.00;99134.84;5106781;27;20026;-68
2021/11/23 07:55:48;;;;;;;6.82;4.30;;;;;;;8.47;100.00;99152.38;5086321;27;20028;-68
2021/11/23 07:58:16;;;;;;;9.93;5.20;;;;;;;8.38;100.00;99148.69;5068565;28;20569;-69
2021/11/23 08:00:41;;;;;;;8.25;5.07;;;;;;;8.34;100.00;99142.09;5103191;27;20458;-68
2021/11/23 08:03:08;;;;;;;7.68;5.15;;;;;;;7.88;100.00;99083.41;5066584;27;20031;-69
2021/11/23 08:05:34;;;;;;;8.73;5.55;;;;;;;8.03;100.00;99100.41;5076361;28;20092;-68
2021/11/23 08:08:01;;;;;;;7.78;5.30;;;;;;;8.31;100.00;99157.88;5062457;28;20036;-68
2021/11/23 08:10:27;;;;;;;8.18;5.10;;;;;;;8.29;100.00;99159.75;5061059;28;20516;-68
2021/11/23 08:12:52;;;;;;;8.68;5.57;;;;;;;8.31;100.00;99149.28;5088106;27;20024;-68
2021/11/23 08:15:18;;;;;;;9.20;6.03;;;;;;;8.30;100.00;99163.16;5076656;28;20528;-68
2021/11/23 08:17:46;;;;;;;9.20;5.68;;;;;;;8.21;100.00;99160.34;5058888;27;20474;-68
2021/11/23 08:20:12;;;;;;;8.30;5.68;;;;;;;8.19;100.00;99162.19;5080575;28;20111;-68
2021/11/23 08:22:38;;;;;;;9.27;5.85;;;;;;;8.13;100.00;99164.44;5062275;27;20774;-69
2021/11/23 08:25:05;;;;;;;10.75;6.50;;;;;;;8.08;100.00;99154.41;5073430;28;20105;-68
2021/11/23 08:27:30;;;;;;;9.20;6.05;;;;;;;8.14;100.00;99159.16;5056668;28;20035;-69
2021/11/23 08:29:55;;;;;;;10.48;6.50;;;;;;;8.18;100.00;99176.13;5095942;27;21369;-69
2021/11/23 08:32:21;;;;;;;11.00;6.57;;;;;;;8.13;100.00;99167.84;5062479;28;20028;-68
2021/11/23 08:34:46;;;;;;;10.05;6.70;;;;;;;8.21;100.00;99182.81;5056693;28;20436;-67
2021/11/23 08:37:12;;;;;;;9.77;6.88;;;;;;;8.24;100.00;99175.63;5064853;28;20085;-68
2021/11/23 08:39:38;;;;;;;10.40;6.95;;;;;;;8.18;100.00;99177.88;5083193;28;20084;-67
2021/11/23 08:42:04;;;;;;;9.63;6.43;;;;;;;8.25;100.00;99173.88;5059186;28;20443;-69
2021/11/23 08:44:30;;;;;;;9.65;6.65;;;;;;;8.30;100.00;99184.72;5090408;27;20032;-67
2021/11/23 08:46:55;;;;;;;10.43;6.57;;;;;;;8.38;100.00;99197.94;5096123;27;20030;-67
2021/11/23 08:49:21;;;;;;;10.27;7.00;;;;;;;8.01;100.00;99138.53;5090724;28;20057;-68
2021/11/23 08:51:46;;;;;;;11.35;6.97;;;;;;;8.37;99.20;99192.84;5099643;27;20039;-68
2021/11/23 08:54:12;;;;;;;10.90;7.07;;;;;;;8.32;98.68;99202.75;5087631;28;20024;-68
2021/11/23 08:56:44;;;;;;;10.07;6.90;;;;;;;8.43;99.29;99202.78;5065787;28;20478;-68
2021/11/23 08:59:13;;;;;;;10.32;6.88;;;;;;;8.23;98.25;99178.34;5064271;28;20313;-68
2021/11/23 09:01:39;;;;;;;9.27;6.13;;;;;;;8.48;97.06;99215.41;5109310;27;20103;-68
2021/11/23 09:04:04;;;;;;;10.32;6.50;;;;;;;8.53;95.56;99213.28;5065379;28;20020;-68
2021/11/23 09:06:33;;;;;;;10.98;6.45;;;;;;;8.51;95.55;99210.81;5071612;28;20093;-67
2021/11/23 09:08:59;;;;;;;13.18;7.28;;;;;;;8.36;96.51;99188.59;5073703;28;20051;-69
2021/11/23 09:11:28;;;;;;;11.05;6.78;;;;;;;8.50;96.87;99218.69;5077586;28;20256;-69
2021/11/23 09:13:54;;;;;;;10.43;6.60;;;;;;;8.55;97.32;99208.81;5075067;28;20023;-68
2021/11/23 09:16:21;;;;;;;12.00;6.93;;;;;;;8.60;96.72;99215.28;5106544;27;20460;-68
2021/11/23 09:18:46;;;;;;;10.32;6.30;;;;;;;8.59;96.65;99215.41;5084293;28;20031;-68
2021/11/23 09:21:12;;;;;;;9.93;6.70;;;;;;;8.60;95.78;99225.66;5056607;28;20024;-68
2021/11/23 09:23:37;;;;;;;10.35;6.38;;;;;;;8.67;95.07;99226.03;5061613;28;20023;-68
2021/11/23 09:26:03;;;;;;;10.85;6.72;;;;;;;8.37;96.37;99178.13;5073666;28;20115;-68
2021/11/23 09:28:28;;;;;;;10.43;6.72;;;;;;;8.64;96.53;99229.66;5111851;27;20031;-68
2021/11/23 09:30:55;;;;;;;11.90;7.65;;;;;;;8.69;97.77;99231.91;5078339;27;20031;-68
2021/11/23 09:33:20;;;;;;;13.95;7.55;;;;;;;8.72;98.80;99231.66;5093264;27;20391;-68
2021/11/23 09:35:45;;;;;;;12.35;7.57;;;;;;;8.82;98.83;99236.97;5074500;27;20052;-68
2021/11/23 09:38:11;;;;;;;11.30;7.13;;;;;;;8.62;98.50;99194.44;5063346;28;20184;-67
2021/11/23 09:40:36;;;;;;;10.27;7.20;;;;;;;8.85;97.14;99231.53;5072597;28;20111;-68
2021/11/23 09:43:03;;;;;;;11.95;7.20;;;;;;;8.82;95.72;99234.41;5094213;27;20015;-68
2021/11/23 09:45:29;;;;;;;10.10;6.82;;;;;;;8.90;95.25;99246.75;5092101;27;20063;-69
2021/11/23 09:47:55;;;;;;;10.20;7.22;;;;;;;8.71;95.34;99222.25;5090106;27;20145;-69
2021/11/23 09:50:20;;;;;;;10.60;7.03;;;;;;;8.85;95.41;99239.31;5091434;27;20016;-67
2021/11/23 09:52:46;;;;;;;11.95;6.95;;;;;;;8.85;95.08;99247.94;5064837;28;20047;-67
2021/11/23 09:55:13;;;;;;;10.90;7.03;;;;;;;8.78;95.56;99238.13;5094735;27;20649;-68
2021/11/23 09:57:38;;;;;;;8.90;5.95;;;;;;;8.81;93.48;99243.09;5053957;27;20442;-67
2021/11/23 10:00:23;;;;;;;9.48;6.57;;;;;;;8.85;94.55;99239.31;5073859;28;20035;-67
2021/11/23 10:02:48;;;;;;;10.38;6.50;;;;;;;8.84;93.93;99248.88;5104744;27;20718;-68
2021/11/23 10:05:15;;;;;;;9.45;6.22;;;;;;;8.81;94.04;99250.88;5079952;27;20027;-68
2021/11/23 10:07:43;;;;;;;10.43;6.63;;;;;;;8.87;93.51;99258.22;5081560;28;20030;-68
2021/11/23 10:10:13;;;;;;;10.75;6.45;;;;;;;8.56;93.17;99208.69;5070781;28;20070;-68
2021/11/23 10:12:39;;;;;;;9.05;5.93;;;;;;;8.89;93.57;99255.47;5065461;28;20032;-67
2021/11/23 10:15:25;;;;;;;11.50;5.95;;;;;;;8.90;93.09;99252.75;5069228;27;20031;-68
2021/11/23 10:17:54;;;;;;;11.38;6.75;;;;;;;8.72;93.37;99212.69;5081989;28;20031;-67
2021/11/23 10:20:33;;;;;;;10.07;6.13;;;;;;;8.95;91.96;99247.25;5067690;28;20070;-67
2021/11/23 10:23:13;;;;;;;10.18;5.40;;;;;;;8.93;90.83;99236.16;5064323;27;20130;-67
2021/11/23 10:25:39;;;;;;;9.98;6.22;;;;;;;8.75;89.83;99195.13;5094520;27;20046;-67
2021/11/23 10:28:05;;;;;;;10.27;6.47;;;;;;;8.84;90.95;99202.19;5094324;27;20394;-67
2021/11/23 10:30:30;;;;;;;8.73;5.82;;;;;;;8.97;89.17;99228.00;5070291;28;20028;-68
2021/11/23 10:32:56;;;;;;;9.57;5.93;;;;;;;9.04;89.35;99243.94;5070127;27;20034;-68
2021/11/23 10:35:24;;;;;;;10.90;5.10;;;;;;;9.01;88.71;99238.97;5076087;28;20046;-67
2021/11/23 10:37:50;;;;;;;8.35;5.45;;;;;;;9.06;88.51;99244.63;5067229;28;20034;-67
2021/11/23 10:40:21;;;;;;;10.05;5.93;;;;;;;9.08;89.60;99239.31;5070511;28;20028;-67
2021/11/23 10:42:55;;;;;;;11.70;6.30;;;;;;;9.10;89.52;99238.25;5080397;28;20506;-67
2021/11/23 10:45:22;;;;;;;9.73;6.25;;;;;;;9.00;88.59;99207.03;5071462;27;20024;-68
2021/11/23 10:47:48;;;;;;;8.65;5.75;;;;;;;9.13;89.71;99237.19;5069224;28;20024;-67
2021/11/23 10:50:16;;;;;;;9.90;6.60;;;;;;;9.18;89.82;99224.66;5069524;28;20024;-67
2021/11/23 10:52:46;;;;;;;9.68;6.45;;;;;;;8.98;90.20;99195.09;5069364;28;20028;-67
2021/11/23 10:55:17;;;;;;;9.68;6.43;;;;;;;9.21;91.37;99227.03;5064828;27;20035;-67
2021/11/23 10:57:44;;;;;;;10.82;6.43;;;;;;;9.20;90.50;99218.44;5092290;27;20470;-68
2021/11/23 11:00:11;;;;;;;10.25;6.10;;;;;;;9.21;89.50;99209.69;5106521;27;20019;-67
2021/11/23 11:02:38;;;;;;;9.60;6.22;;;;;;;9.26;89.62;99205.91;5070401;28;20752;-67
2021/11/23 11:05:08;;;;;;;8.75;5.40;;;;;;;9.34;89.74;99208.72;5061084;28;20107;-68
2021/11/23 11:07:36;;;;;;;10.02;5.47;;;;;;;9.36;90.26;99206.81;5071201;28;20114;-67
2021/11/23 11:10:03;;;;;;;9.02;6.00;;;;;;;9.21;90.99;99162.97;5074674;28;20028;-67
2021/11/23 11:12:28;;;;;;;10.60;5.35;;;;;;;9.54;90.07;99201.94;5082987;28;20062;-67
2021/11/23 11:14:55;;;;;;;8.38;5.22;;;;;;;9.55;89.18;99212.19;5081034;28;20478;-68
2021/11/23 11:17:24;;;;;;;8.95;5.35;;;;;;;9.35;88.86;99159.28;5071156;28;20101;-67
2021/11/23 11:19:51;;;;;;;9.80;5.07;;;;;;;9.67;87.72;99205.19;5095476;27;20084;-67
2021/11/23 11:22:24;;;;;;;8.70;5.63;;;;;;;9.69;87.21;99197.25;5098427;28;20035;-67
2021/11/23 11:27:39;;;;;;;7.72;5.03;;;;;;;9.75;86.55;99204.56;5079941;27;20032;-67
2021/11/23 11:30:31;;;;;;;9.25;4.93;;;;;;;9.81;87.94;99199.69;5077370;28;20027;-67